sensor_id;sensor_type;location;lat;lon;timestamp;P1;durP1;ratioP1;P2;durP2;ratioP2
35745;SDS011;21870;42.812;74.628;2023-12-20T00:01:55;81.25;;;53.75;;
35745;SDS011;21870;42.812;74.628;2023-12-20T00:04:21;93.55;;;56.65;;
35745;SDS011;21870;42.812;74.628;2023-12-20T00:06:47;94.97;;;58.03;;
35745;SDS011;21870;42.812;74.628;2023-12-20T00:09:13;82.22;;;52.50;;
35745;SDS011;21870;42.812;74.628;2023-12-20T00:11:39;85.15;;;56.08;;
35745;SDS011;21870;42.812;74.628;2023-12-20T00:14:07;83.68;;;52.75;;
35745;SDS011;21870;42.812;74.628;2023-12-20T00:16:33;80.60;;;51.17;;
35745;SDS011;21870;42.812;74.628;2023-12-20T00:18:59;74.50;;;49.55;;
35745;SDS011;21870;42.812;74.628;2023-12-20T00:21:25;81.07;;;51.95;;
35745;SDS011;21870;42.812;74.628;2023-12-20T00:23:51;79.57;;;51.92;;
35745;SDS011;21870;42.812;74.628;2023-12-20T00:26:17;76.22;;;48.75;;
35745;SDS011;21870;42.812;74.628;2023-12-20T00:28:43;78.05;;;49.85;;
35745;SDS011;21870;42.812;74.628;2023-12-20T00:31:09;84.57;;;59.20;;
35745;SDS011;21870;42.812;74.628;2023-12-20T00:33:35;93.72;;;54.75;;
35745;SDS011;21870;42.812;74.628;2023-12-20T00:36:01;88.82;;;55.95;;
35745;SDS011;21870;42.812;74.628;2023-12-20T00:38:28;95.10;;;56.60;;
35745;SDS011;21870;42.812;74.628;2023-12-20T00:40:54;95.13;;;58.58;;
35745;SDS011;21870;42.812;74.628;2023-12-20T00:43:20;98.30;;;58.58;;
35745;SDS011;21870;42.812;74.628;2023-12-20T00:45:46;97.03;;;58.35;;
35745;SDS011;21870;42.812;74.628;2023-12-20T00:48:12;97.47;;;57.28;;
35745;SDS011;21870;42.812;74.628;2023-12-20T00:50:38;100.30;;;59.22;;
35745;SDS011;21870;42.812;74.628;2023-12-20T00:53:04;95.82;;;56.85;;
35745;SDS011;21870;42.812;74.628;2023-12-20T00:55:30;96.95;;;56.92;;
35745;SDS011;21870;42.812;74.628;2023-12-20T00:57:56;94.97;;;57.95;;
35745;SDS011;21870;42.812;74.628;2023-12-20T01:00:24;98.20;;;60.90;;
35745;SDS011;21870;42.812;74.628;2023-12-20T01:02:50;94.60;;;58.72;;
35745;SDS011;21870;42.812;74.628;2023-12-20T01:05:17;95.82;;;58.05;;
35745;SDS011;21870;42.812;74.628;2023-12-20T01:07:44;98.93;;;59.90;;
35745;SDS011;21870;42.812;74.628;2023-12-20T01:10:10;91.47;;;57.30;;
35745;SDS011;21870;42.812;74.628;2023-12-20T01:12:36;92.00;;;57.10;;
35745;SDS011;21870;42.812;74.628;2023-12-20T01:15:02;92.90;;;55.13;;
35745;SDS011;21870;42.812;74.628;2023-12-20T01:17:29;90.97;;;55.65;;
35745;SDS011;21870;42.812;74.628;2023-12-20T01:19:55;84.97;;;53.97;;
35745;SDS011;21870;42.812;74.628;2023-12-20T01:22:21;87.10;;;53.72;;
35745;SDS011;21870;42.812;74.628;2023-12-20T01:24:47;88.70;;;54.58;;
35745;SDS011;21870;42.812;74.628;2023-12-20T01:27:13;96.20;;;56.92;;
35745;SDS011;21870;42.812;74.628;2023-12-20T01:29:39;96.97;;;55.78;;
35745;SDS011;21870;42.812;74.628;2023-12-20T01:32:05;99.50;;;57.63;;
35745;SDS011;21870;42.812;74.628;2023-12-20T01:34:31;97.47;;;58.65;;
35745;SDS011;21870;42.812;74.628;2023-12-20T01:36:57;88.35;;;53.33;;
35745;SDS011;21870;42.812;74.628;2023-12-20T01:39:23;78.53;;;49.38;;
35745;SDS011;21870;42.812;74.628;2023-12-20T01:41:49;73.00;;;45.38;;
35745;SDS011;21870;42.812;74.628;2023-12-20T01:44:15;79.97;;;50.53;;
35745;SDS011;21870;42.812;74.628;2023-12-20T01:46:41;87.00;;;52.60;;
35745;SDS011;21870;42.812;74.628;2023-12-20T01:49:07;107.32;;;69.20;;
35745;SDS011;21870;42.812;74.628;2023-12-20T01:51:34;87.72;;;51.20;;
35745;SDS011;21870;42.812;74.628;2023-12-20T01:54:00;85.15;;;49.47;;
35745;SDS011;21870;42.812;74.628;2023-12-20T01:56:27;87.43;;;52.03;;
35745;SDS011;21870;42.812;74.628;2023-12-20T01:58:54;82.53;;;50.05;;
35745;SDS011;21870;42.812;74.628;2023-12-20T02:01:21;95.90;;;53.67;;
35745;SDS011;21870;42.812;74.628;2023-12-20T02:03:47;80.68;;;51.72;;
35745;SDS011;21870;42.812;74.628;2023-12-20T02:06:13;77.72;;;47.55;;
35745;SDS011;21870;42.812;74.628;2023-12-20T02:08:40;86.93;;;49.40;;
35745;SDS011;21870;42.812;74.628;2023-12-20T02:11:06;83.47;;;51.40;;
35745;SDS011;21870;42.812;74.628;2023-12-20T02:13:33;89.70;;;53.67;;
35745;SDS011;21870;42.812;74.628;2023-12-20T02:15:59;92.97;;;54.58;;
35745;SDS011;21870;42.812;74.628;2023-12-20T02:18:25;92.13;;;54.42;;
35745;SDS011;21870;42.812;74.628;2023-12-20T02:20:51;85.93;;;52.55;;
35745;SDS011;21870;42.812;74.628;2023-12-20T02:23:18;89.35;;;53.53;;
35745;SDS011;21870;42.812;74.628;2023-12-20T02:25:44;88.50;;;53.50;;
35745;SDS011;21870;42.812;74.628;2023-12-20T02:28:10;92.40;;;53.25;;
35745;SDS011;21870;42.812;74.628;2023-12-20T02:30:36;92.20;;;52.80;;
35745;SDS011;21870;42.812;74.628;2023-12-20T02:33:03;83.82;;;51.10;;
35745;SDS011;21870;42.812;74.628;2023-12-20T02:35:32;92.88;;;54.63;;
35745;SDS011;21870;42.812;74.628;2023-12-20T02:37:58;94.38;;;53.88;;
35745;SDS011;21870;42.812;74.628;2023-12-20T02:40:24;100.40;;;55.97;;
35745;SDS011;21870;42.812;74.628;2023-12-20T02:42:50;106.43;;;59.83;;
35745;SDS011;21870;42.812;74.628;2023-12-20T02:45:16;114.97;;;60.53;;
35745;SDS011;21870;42.812;74.628;2023-12-20T02:47:42;105.10;;;58.72;;
35745;SDS011;21870;42.812;74.628;2023-12-20T02:50:08;120.90;;;65.22;;
35745;SDS011;21870;42.812;74.628;2023-12-20T02:52:34;122.47;;;66.75;;
35745;SDS011;21870;42.812;74.628;2023-12-20T02:55:00;139.27;;;71.68;;
35745;SDS011;21870;42.812;74.628;2023-12-20T02:57:26;120.28;;;62.63;;
35745;SDS011;21870;42.812;74.628;2023-12-20T02:59:52;120.88;;;63.63;;
35745;SDS011;21870;42.812;74.628;2023-12-20T03:02:18;129.52;;;65.15;;
35745;SDS011;21870;42.812;74.628;2023-12-20T03:04:44;123.97;;;66.68;;
35745;SDS011;21870;42.812;74.628;2023-12-20T03:07:10;124.63;;;64.97;;
35745;SDS011;21870;42.812;74.628;2023-12-20T03:09:37;149.27;;;70.63;;
35745;SDS011;21870;42.812;74.628;2023-12-20T03:12:03;152.40;;;73.47;;
35745;SDS011;21870;42.812;74.628;2023-12-20T03:14:29;142.95;;;68.50;;
35745;SDS011;21870;42.812;74.628;2023-12-20T03:16:56;113.93;;;63.38;;
35745;SDS011;21870;42.812;74.628;2023-12-20T03:19:21;103.07;;;59.53;;
35745;SDS011;21870;42.812;74.628;2023-12-20T03:21:48;106.47;;;57.38;;
35745;SDS011;21870;42.812;74.628;2023-12-20T03:24:13;83.30;;;48.35;;
35745;SDS011;21870;42.812;74.628;2023-12-20T03:26:39;79.55;;;47.28;;
35745;SDS011;21870;42.812;74.628;2023-12-20T03:29:05;83.40;;;46.58;;
35745;SDS011;21870;42.812;74.628;2023-12-20T03:31:31;75.90;;;48.42;;
35745;SDS011;21870;42.812;74.628;2023-12-20T03:33:57;72.38;;;43.05;;
35745;SDS011;21870;42.812;74.628;2023-12-20T03:36:23;79.05;;;47.05;;
35745;SDS011;21870;42.812;74.628;2023-12-20T03:38:49;78.32;;;46.92;;
35745;SDS011;21870;42.812;74.628;2023-12-20T03:41:15;77.63;;;46.50;;
35745;SDS011;21870;42.812;74.628;2023-12-20T03:43:41;73.78;;;43.53;;
35745;SDS011;21870;42.812;74.628;2023-12-20T03:46:08;73.95;;;44.67;;
35745;SDS011;21870;42.812;74.628;2023-12-20T03:48:34;63.72;;;41.47;;
35745;SDS011;21870;42.812;74.628;2023-12-20T03:51:00;85.30;;;48.45;;
35745;SDS011;21870;42.812;74.628;2023-12-20T03:53:26;86.88;;;51.55;;
35745;SDS011;21870;42.812;74.628;2023-12-20T03:55:52;96.10;;;54.22;;
35745;SDS011;21870;42.812;74.628;2023-12-20T03:58:18;96.55;;;51.88;;
35745;SDS011;21870;42.812;74.628;2023-12-20T04:00:44;92.97;;;53.95;;
35745;SDS011;21870;42.812;74.628;2023-12-20T04:03:10;79.72;;;47.47;;
35745;SDS011;21870;42.812;74.628;2023-12-20T04:05:39;82.75;;;45.42;;
35745;SDS011;21870;42.812;74.628;2023-12-20T04:08:07;76.90;;;46.38;;
35745;SDS011;21870;42.812;74.628;2023-12-20T04:10:33;77.10;;;45.15;;
35745;SDS011;21870;42.812;74.628;2023-12-20T04:12:59;72.28;;;42.22;;
35745;SDS011;21870;42.812;74.628;2023-12-20T04:15:25;75.00;;;41.20;;
35745;SDS011;21870;42.812;74.628;2023-12-20T04:17:51;61.58;;;39.30;;
35745;SDS011;21870;42.812;74.628;2023-12-20T04:20:17;72.88;;;41.35;;
35745;SDS011;21870;42.812;74.628;2023-12-20T04:22:43;67.38;;;40.65;;
35745;SDS011;21870;42.812;74.628;2023-12-20T04:25:09;66.78;;;39.30;;
35745;SDS011;21870;42.812;74.628;2023-12-20T04:27:35;65.63;;;39.70;;
35745;SDS011;21870;42.812;74.628;2023-12-20T04:30:01;64.28;;;39.15;;
35745;SDS011;21870;42.812;74.628;2023-12-20T04:32:28;61.20;;;38.15;;
35745;SDS011;21870;42.812;74.628;2023-12-20T04:34:55;54.05;;;36.65;;
35745;SDS011;21870;42.812;74.628;2023-12-20T04:37:21;60.20;;;37.35;;
35745;SDS011;21870;42.812;74.628;2023-12-20T04:39:47;56.15;;;34.30;;
35745;SDS011;21870;42.812;74.628;2023-12-20T04:42:13;54.05;;;35.28;;
35745;SDS011;21870;42.812;74.628;2023-12-20T04:44:39;53.95;;;36.40;;
35745;SDS011;21870;42.812;74.628;2023-12-20T04:47:09;52.38;;;32.53;;
35745;SDS011;21870;42.812;74.628;2023-12-20T04:49:35;54.90;;;33.70;;
35745;SDS011;21870;42.812;74.628;2023-12-20T04:52:01;48.83;;;30.63;;
35745;SDS011;21870;42.812;74.628;2023-12-20T04:54:27;43.03;;;29.50;;
35745;SDS011;21870;42.812;74.628;2023-12-20T04:56:53;43.50;;;30.73;;
35745;SDS011;21870;42.812;74.628;2023-12-20T04:59:19;44.08;;;30.25;;
35745;SDS011;21870;42.812;74.628;2023-12-20T05:01:45;45.47;;;29.73;;
35745;SDS011;21870;42.812;74.628;2023-12-20T05:04:11;38.50;;;27.40;;
35745;SDS011;21870;42.812;74.628;2023-12-20T05:06:37;39.67;;;27.80;;
35745;SDS011;21870;42.812;74.628;2023-12-20T05:09:03;35.17;;;27.05;;
35745;SDS011;21870;42.812;74.628;2023-12-20T05:11:29;35.55;;;24.58;;
35745;SDS011;21870;42.812;74.628;2023-12-20T05:13:55;37.15;;;25.80;;
35745;SDS011;21870;42.812;74.628;2023-12-20T05:16:22;33.70;;;23.80;;
35745;SDS011;21870;42.812;74.628;2023-12-20T05:18:48;32.50;;;23.33;;
35745;SDS011;21870;42.812;74.628;2023-12-20T05:21:15;32.47;;;22.83;;
35745;SDS011;21870;42.812;74.628;2023-12-20T05:23:41;33.70;;;24.58;;
35745;SDS011;21870;42.812;74.628;2023-12-20T05:26:07;28.33;;;20.77;;
35745;SDS011;21870;42.812;74.628;2023-12-20T05:28:33;33.83;;;26.65;;
35745;SDS011;21870;42.812;74.628;2023-12-20T05:30:59;30.35;;;23.55;;
35745;SDS011;21870;42.812;74.628;2023-12-20T05:33:25;34.42;;;22.08;;
35745;SDS011;21870;42.812;74.628;2023-12-20T05:35:51;28.90;;;22.63;;
35745;SDS011;21870;42.812;74.628;2023-12-20T05:38:17;34.40;;;23.20;;
35745;SDS011;21870;42.812;74.628;2023-12-20T05:40:43;30.17;;;23.52;;
35745;SDS011;21870;42.812;74.628;2023-12-20T05:43:13;29.75;;;24.23;;
35745;SDS011;21870;42.812;74.628;2023-12-20T05:45:39;31.70;;;23.08;;
35745;SDS011;21870;42.812;74.628;2023-12-20T05:48:05;32.17;;;23.65;;
35745;SDS011;21870;42.812;74.628;2023-12-20T05:50:32;33.95;;;24.90;;
35745;SDS011;21870;42.812;74.628;2023-12-20T05:53:01;34.88;;;25.67;;
35745;SDS011;21870;42.812;74.628;2023-12-20T05:55:27;35.60;;;25.83;;
35745;SDS011;21870;42.812;74.628;2023-12-20T05:57:53;39.90;;;26.83;;
35745;SDS011;21870;42.812;74.628;2023-12-20T06:00:19;35.20;;;25.55;;
35745;SDS011;21870;42.812;74.628;2023-12-20T06:02:45;38.08;;;27.70;;
35745;SDS011;21870;42.812;74.628;2023-12-20T06:05:11;37.35;;;27.52;;
35745;SDS011;21870;42.812;74.628;2023-12-20T06:07:37;39.60;;;28.40;;
35745;SDS011;21870;42.812;74.628;2023-12-20T06:10:03;36.88;;;28.45;;
35745;SDS011;21870;42.812;74.628;2023-12-20T06:12:31;40.08;;;29.70;;
35745;SDS011;21870;42.812;74.628;2023-12-20T06:14:58;41.45;;;29.35;;
35745;SDS011;21870;42.812;74.628;2023-12-20T06:17:24;38.75;;;29.00;;
35745;SDS011;21870;42.812;74.628;2023-12-20T06:19:50;45.10;;;33.20;;
35745;SDS011;21870;42.812;74.628;2023-12-20T06:22:16;45.55;;;33.22;;
35745;SDS011;21870;42.812;74.628;2023-12-20T06:24:43;45.22;;;33.60;;
35745;SDS011;21870;42.812;74.628;2023-12-20T06:27:09;46.83;;;34.58;;
35745;SDS011;21870;42.812;74.628;2023-12-20T06:29:37;47.40;;;35.22;;
35745;SDS011;21870;42.812;74.628;2023-12-20T06:32:03;55.58;;;38.67;;
35745;SDS011;21870;42.812;74.628;2023-12-20T06:34:30;54.63;;;40.97;;
35745;SDS011;21870;42.812;74.628;2023-12-20T06:36:56;56.20;;;42.20;;
35745;SDS011;21870;42.812;74.628;2023-12-20T06:39:25;52.30;;;42.50;;
35745;SDS011;21870;42.812;74.628;2023-12-20T06:41:51;53.33;;;41.65;;
35745;SDS011;21870;42.812;74.628;2023-12-20T06:44:17;76.15;;;55.65;;
35745;SDS011;21870;42.812;74.628;2023-12-20T06:46:43;74.05;;;53.90;;
35745;SDS011;21870;42.812;74.628;2023-12-20T06:49:09;77.32;;;54.42;;
35745;SDS011;21870;42.812;74.628;2023-12-20T06:51:35;76.22;;;52.80;;
35745;SDS011;21870;42.812;74.628;2023-12-20T06:54:01;68.97;;;50.20;;
35745;SDS011;21870;42.812;74.628;2023-12-20T06:56:28;74.15;;;49.42;;
35745;SDS011;21870;42.812;74.628;2023-12-20T06:58:54;71.88;;;50.65;;
35745;SDS011;21870;42.812;74.628;2023-12-20T07:01:20;79.53;;;54.33;;
35745;SDS011;21870;42.812;74.628;2023-12-20T07:03:46;73.07;;;53.13;;
35745;SDS011;21870;42.812;74.628;2023-12-20T07:06:12;75.05;;;53.92;;
35745;SDS011;21870;42.812;74.628;2023-12-20T07:08:40;70.97;;;54.80;;
35745;SDS011;21870;42.812;74.628;2023-12-20T07:11:06;79.10;;;58.17;;
35745;SDS011;21870;42.812;74.628;2023-12-20T07:13:32;90.82;;;69.93;;
35745;SDS011;21870;42.812;74.628;2023-12-20T07:15:58;95.78;;;76.40;;
35745;SDS011;21870;42.812;74.628;2023-12-20T07:18:24;82.00;;;67.07;;
35745;SDS011;21870;42.812;74.628;2023-12-20T07:20:50;73.18;;;56.70;;
35745;SDS011;21870;42.812;74.628;2023-12-20T07:23:17;64.32;;;53.03;;
35745;SDS011;21870;42.812;74.628;2023-12-20T07:25:44;60.75;;;50.45;;
35745;SDS011;21870;42.812;74.628;2023-12-20T07:28:10;66.90;;;55.45;;
35745;SDS011;21870;42.812;74.628;2023-12-20T07:30:36;56.13;;;46.80;;
35745;SDS011;21870;42.812;74.628;2023-12-20T07:33:03;60.53;;;49.15;;
35745;SDS011;21870;42.812;74.628;2023-12-20T07:35:29;58.35;;;47.25;;
35745;SDS011;21870;42.812;74.628;2023-12-20T07:37:55;41.10;;;33.92;;
35745;SDS011;21870;42.812;74.628;2023-12-20T07:40:21;32.50;;;27.38;;
35745;SDS011;21870;42.812;74.628;2023-12-20T07:42:48;26.23;;;23.02;;
35745;SDS011;21870;42.812;74.628;2023-12-20T07:45:15;22.83;;;20.35;;
35745;SDS011;21870;42.812;74.628;2023-12-20T07:47:41;24.08;;;21.17;;
35745;SDS011;21870;42.812;74.628;2023-12-20T07:50:07;36.22;;;26.98;;
35745;SDS011;21870;42.812;74.628;2023-12-20T07:52:33;21.05;;;18.90;;
35745;SDS011;21870;42.812;74.628;2023-12-20T07:54:59;24.58;;;19.80;;
35745;SDS011;21870;42.812;74.628;2023-12-20T07:57:28;22.40;;;19.85;;
35745;SDS011;21870;42.812;74.628;2023-12-20T07:59:54;22.83;;;20.30;;
35745;SDS011;21870;42.812;74.628;2023-12-20T08:02:20;28.45;;;22.95;;
35745;SDS011;21870;42.812;74.628;2023-12-20T08:04:46;27.13;;;23.35;;
35745;SDS011;21870;42.812;74.628;2023-12-20T08:07:12;22.05;;;19.70;;
35745;SDS011;21870;42.812;74.628;2023-12-20T08:09:38;21.25;;;18.80;;
35745;SDS011;21870;42.812;74.628;2023-12-20T08:12:04;21.80;;;19.50;;
35745;SDS011;21870;42.812;74.628;2023-12-20T08:14:31;23.60;;;21.10;;
35745;SDS011;21870;42.812;74.628;2023-12-20T08:16:57;23.02;;;20.52;;
35745;SDS011;21870;42.812;74.628;2023-12-20T08:19:23;23.17;;;20.40;;
35745;SDS011;21870;42.812;74.628;2023-12-20T08:21:49;23.05;;;20.67;;
35745;SDS011;21870;42.812;74.628;2023-12-20T08:24:15;25.50;;;22.80;;
35745;SDS011;21870;42.812;74.628;2023-12-20T08:26:41;31.20;;;22.92;;
35745;SDS011;21870;42.812;74.628;2023-12-20T08:29:07;52.55;;;31.60;;
35745;SDS011;21870;42.812;74.628;2023-12-20T08:31:33;29.75;;;26.73;;
35745;SDS011;21870;42.812;74.628;2023-12-20T08:33:59;21.65;;;19.45;;
35745;SDS011;21870;42.812;74.628;2023-12-20T08:36:25;28.38;;;23.70;;
35745;SDS011;21870;42.812;74.628;2023-12-20T08:38:51;20.45;;;18.35;;
35745;SDS011;21870;42.812;74.628;2023-12-20T08:41:17;20.90;;;18.65;;
35745;SDS011;21870;42.812;74.628;2023-12-20T08:43:43;56.08;;;40.65;;
35745;SDS011;21870;42.812;74.628;2023-12-20T08:46:09;45.58;;;35.13;;
35745;SDS011;21870;42.812;74.628;2023-12-20T08:48:35;50.10;;;40.08;;
35745;SDS011;21870;42.812;74.628;2023-12-20T08:51:02;24.58;;;22.05;;
35745;SDS011;21870;42.812;74.628;2023-12-20T08:53:29;42.65;;;36.90;;
35745;SDS011;21870;42.812;74.628;2023-12-20T08:55:55;33.22;;;28.55;;
35745;SDS011;21870;42.812;74.628;2023-12-20T08:58:23;27.58;;;24.63;;
35745;SDS011;21870;42.812;74.628;2023-12-20T09:00:49;33.78;;;30.15;;
35745;SDS011;21870;42.812;74.628;2023-12-20T09:03:15;31.25;;;27.88;;
35745;SDS011;21870;42.812;74.628;2023-12-20T09:05:41;26.98;;;24.33;;
35745;SDS011;21870;42.812;74.628;2023-12-20T09:08:07;27.27;;;24.45;;
35745;SDS011;21870;42.812;74.628;2023-12-20T09:10:35;21.70;;;19.10;;
35745;SDS011;21870;42.812;74.628;2023-12-20T09:13:01;22.15;;;19.83;;
35745;SDS011;21870;42.812;74.628;2023-12-20T09:15:27;20.98;;;18.83;;
35745;SDS011;21870;42.812;74.628;2023-12-20T09:17:55;19.77;;;17.90;;
35745;SDS011;21870;42.812;74.628;2023-12-20T09:20:21;19.65;;;17.85;;
35745;SDS011;21870;42.812;74.628;2023-12-20T09:22:48;20.50;;;18.35;;
35745;SDS011;21870;42.812;74.628;2023-12-20T09:25:14;21.52;;;19.23;;
35745;SDS011;21870;42.812;74.628;2023-12-20T09:27:42;21.92;;;19.73;;
35745;SDS011;21870;42.812;74.628;2023-12-20T09:30:08;21.92;;;19.65;;
35745;SDS011;21870;42.812;74.628;2023-12-20T09:32:38;19.92;;;17.77;;
35745;SDS011;21870;42.812;74.628;2023-12-20T09:35:07;20.00;;;17.95;;
35745;SDS011;21870;42.812;74.628;2023-12-20T09:37:34;19.73;;;17.77;;
35745;SDS011;21870;42.812;74.628;2023-12-20T09:40:00;17.63;;;16.02;;
35745;SDS011;21870;42.812;74.628;2023-12-20T09:42:37;18.20;;;16.30;;
35745;SDS011;21870;42.812;74.628;2023-12-20T09:45:22;20.20;;;17.80;;
35745;SDS011;21870;42.812;74.628;2023-12-20T09:47:53;28.02;;;24.55;;
35745;SDS011;21870;42.812;74.628;2023-12-20T09:50:20;39.60;;;29.52;;
35745;SDS011;21870;42.812;74.628;2023-12-20T09:52:50;32.75;;;24.25;;
35745;SDS011;21870;42.812;74.628;2023-12-20T09:55:18;38.67;;;27.25;;
35745;SDS011;21870;42.812;74.628;2023-12-20T09:57:45;22.20;;;19.48;;
35745;SDS011;21870;42.812;74.628;2023-12-20T10:00:12;16.90;;;15.20;;
35745;SDS011;21870;42.812;74.628;2023-12-20T10:02:50;20.60;;;17.92;;
35745;SDS011;21870;42.812;74.628;2023-12-20T10:05:29;18.98;;;17.17;;
35745;SDS011;21870;42.812;74.628;2023-12-20T10:07:56;21.85;;;18.55;;
35745;SDS011;21870;42.812;74.628;2023-12-20T10:10:23;20.13;;;17.92;;
35745;SDS011;21870;42.812;74.628;2023-12-20T10:15:32;26.45;;;22.80;;
35745;SDS011;21870;42.812;74.628;2023-12-20T10:17:58;29.27;;;23.55;;
35745;SDS011;21870;42.812;74.628;2023-12-20T10:20:25;18.30;;;16.38;;
35745;SDS011;21870;42.812;74.628;2023-12-20T10:22:52;18.98;;;17.27;;
35745;SDS011;21870;42.812;74.628;2023-12-20T10:25:21;20.65;;;18.65;;
35745;SDS011;21870;42.812;74.628;2023-12-20T10:27:47;23.30;;;21.05;;
35745;SDS011;21870;42.812;74.628;2023-12-20T10:30:14;22.55;;;20.35;;
35745;SDS011;21870;42.812;74.628;2023-12-20T10:32:40;26.70;;;23.95;;
35745;SDS011;21870;42.812;74.628;2023-12-20T10:35:07;20.27;;;18.35;;
35745;SDS011;21870;42.812;74.628;2023-12-20T10:37:35;20.55;;;18.40;;
35745;SDS011;21870;42.812;74.628;2023-12-20T10:40:03;14.13;;;12.63;;
35745;SDS011;21870;42.812;74.628;2023-12-20T10:42:31;12.93;;;11.57;;
35745;SDS011;21870;42.812;74.628;2023-12-20T10:44:59;12.48;;;11.18;;
35745;SDS011;21870;42.812;74.628;2023-12-20T10:47:26;11.05;;;9.95;;
35745;SDS011;21870;42.812;74.628;2023-12-20T10:49:53;11.48;;;10.38;;
35745;SDS011;21870;42.812;74.628;2023-12-20T10:52:22;12.40;;;11.13;;
35745;SDS011;21870;42.812;74.628;2023-12-20T10:54:50;13.45;;;12.05;;
35745;SDS011;21870;42.812;74.628;2023-12-20T10:57:16;10.82;;;9.73;;
35745;SDS011;21870;42.812;74.628;2023-12-20T10:59:44;8.52;;;7.72;;
35745;SDS011;21870;42.812;74.628;2023-12-20T11:02:14;8.70;;;8.00;;
35745;SDS011;21870;42.812;74.628;2023-12-20T11:04:53;8.65;;;7.85;;
35745;SDS011;21870;42.812;74.628;2023-12-20T11:07:46;9.00;;;8.15;;
35745;SDS011;21870;42.812;74.628;2023-12-20T11:10:19;9.25;;;7.97;;
35745;SDS011;21870;42.812;74.628;2023-12-20T11:12:56;8.18;;;7.47;;
35745;SDS011;21870;42.812;74.628;2023-12-20T11:15:27;9.18;;;7.80;;
35745;SDS011;21870;42.812;74.628;2023-12-20T11:17:55;11.13;;;10.05;;
35745;SDS011;21870;42.812;74.628;2023-12-20T11:20:24;12.88;;;11.68;;
35745;SDS011;21870;42.812;74.628;2023-12-20T11:23:00;10.38;;;9.38;;
35745;SDS011;21870;42.812;74.628;2023-12-20T11:25:26;8.43;;;7.63;;
35745;SDS011;21870;42.812;74.628;2023-12-20T11:28:11;7.47;;;6.78;;
35745;SDS011;21870;42.812;74.628;2023-12-20T11:30:47;8.05;;;7.32;;
35745;SDS011;21870;42.812;74.628;2023-12-20T11:33:21;7.68;;;6.97;;
35745;SDS011;21870;42.812;74.628;2023-12-20T11:35:48;7.25;;;6.65;;
35745;SDS011;21870;42.812;74.628;2023-12-20T11:38:14;7.05;;;6.45;;
35745;SDS011;21870;42.812;74.628;2023-12-20T11:40:43;8.10;;;7.38;;
35745;SDS011;21870;42.812;74.628;2023-12-20T11:43:14;6.97;;;6.38;;
35745;SDS011;21870;42.812;74.628;2023-12-20T11:45:56;7.85;;;7.15;;
35745;SDS011;21870;42.812;74.628;2023-12-20T11:48:30;9.68;;;8.65;;
35745;SDS011;21870;42.812;74.628;2023-12-20T11:50:57;12.75;;;10.77;;
35745;SDS011;21870;42.812;74.628;2023-12-20T11:53:23;12.38;;;11.07;;
35745;SDS011;21870;42.812;74.628;2023-12-20T11:55:49;11.35;;;10.02;;
35745;SDS011;21870;42.812;74.628;2023-12-20T11:58:15;11.23;;;10.23;;
35745;SDS011;21870;42.812;74.628;2023-12-20T12:00:42;10.95;;;10.05;;
35745;SDS011;21870;42.812;74.628;2023-12-20T12:03:08;10.27;;;9.35;;
35745;SDS011;21870;42.812;74.628;2023-12-20T12:05:35;10.30;;;9.30;;
35745;SDS011;21870;42.812;74.628;2023-12-20T12:08:01;10.60;;;9.60;;
35745;SDS011;21870;42.812;74.628;2023-12-20T12:10:31;12.63;;;11.27;;
35745;SDS011;21870;42.812;74.628;2023-12-20T12:12:57;12.20;;;11.00;;
35745;SDS011;21870;42.812;74.628;2023-12-20T12:15:23;11.68;;;10.48;;
35745;SDS011;21870;42.812;74.628;2023-12-20T12:17:53;11.52;;;10.32;;
35745;SDS011;21870;42.812;74.628;2023-12-20T12:20:21;9.63;;;8.77;;
35745;SDS011;21870;42.812;74.628;2023-12-20T12:23:06;9.68;;;8.68;;
35745;SDS011;21870;42.812;74.628;2023-12-20T12:25:32;13.25;;;9.57;;
35745;SDS011;21870;42.812;74.628;2023-12-20T12:28:00;16.35;;;13.88;;
35745;SDS011;21870;42.812;74.628;2023-12-20T12:30:27;15.57;;;12.25;;
35745;SDS011;21870;42.812;74.628;2023-12-20T12:32:53;17.45;;;14.20;;
35745;SDS011;21870;42.812;74.628;2023-12-20T12:35:21;18.67;;;16.35;;
35745;SDS011;21870;42.812;74.628;2023-12-20T12:37:47;18.15;;;15.27;;
35745;SDS011;21870;42.812;74.628;2023-12-20T12:40:14;12.60;;;11.00;;
35745;SDS011;21870;42.812;74.628;2023-12-20T12:42:42;12.70;;;11.38;;
35745;SDS011;21870;42.812;74.628;2023-12-20T12:45:09;13.82;;;11.23;;
35745;SDS011;21870;42.812;74.628;2023-12-20T12:47:38;11.80;;;9.82;;
35745;SDS011;21870;42.812;74.628;2023-12-20T12:50:05;8.77;;;7.68;;
35745;SDS011;21870;42.812;74.628;2023-12-20T12:52:31;9.50;;;8.07;;
35745;SDS011;21870;42.812;74.628;2023-12-20T12:54:57;9.63;;;8.75;;
35745;SDS011;21870;42.812;74.628;2023-12-20T12:57:24;11.98;;;10.40;;
35745;SDS011;21870;42.812;74.628;2023-12-20T12:59:50;11.13;;;9.95;;
35745;SDS011;21870;42.812;74.628;2023-12-20T13:02:16;10.95;;;9.48;;
35745;SDS011;21870;42.812;74.628;2023-12-20T13:04:42;10.20;;;9.27;;
35745;SDS011;21870;42.812;74.628;2023-12-20T13:07:08;13.45;;;11.50;;
35745;SDS011;21870;42.812;74.628;2023-12-20T13:09:38;15.05;;;12.82;;
35745;SDS011;21870;42.812;74.628;2023-12-20T13:12:04;14.32;;;11.68;;
35745;SDS011;21870;42.812;74.628;2023-12-20T13:14:32;15.40;;;11.85;;
35745;SDS011;21870;42.812;74.628;2023-12-20T13:17:00;12.85;;;11.50;;
35745;SDS011;21870;42.812;74.628;2023-12-20T13:19:26;11.27;;;9.40;;
35745;SDS011;21870;42.812;74.628;2023-12-20T13:21:53;11.05;;;9.38;;
35745;SDS011;21870;42.812;74.628;2023-12-20T13:24:19;11.10;;;10.02;;
35745;SDS011;21870;42.812;74.628;2023-12-20T13:26:45;9.70;;;8.70;;
35745;SDS011;21870;42.812;74.628;2023-12-20T13:29:11;11.27;;;8.82;;
35745;SDS011;21870;42.812;74.628;2023-12-20T13:31:37;9.48;;;8.60;;
35745;SDS011;21870;42.812;74.628;2023-12-20T13:34:03;8.02;;;7.22;;
35745;SDS011;21870;42.812;74.628;2023-12-20T13:36:29;7.90;;;7.10;;
35745;SDS011;21870;42.812;74.628;2023-12-20T13:38:55;8.23;;;7.53;;
35745;SDS011;21870;42.812;74.628;2023-12-20T13:41:21;7.75;;;6.88;;
35745;SDS011;21870;42.812;74.628;2023-12-20T13:43:48;7.97;;;7.18;;
35745;SDS011;21870;42.812;74.628;2023-12-20T13:46:14;7.78;;;6.97;;
35745;SDS011;21870;42.812;74.628;2023-12-20T13:48:40;7.65;;;6.85;;
35745;SDS011;21870;42.812;74.628;2023-12-20T13:51:06;7.70;;;7.00;;
35745;SDS011;21870;42.812;74.628;2023-12-20T13:53:32;6.63;;;6.10;;
35745;SDS011;21870;42.812;74.628;2023-12-20T13:55:59;7.15;;;6.45;;
35745;SDS011;21870;42.812;74.628;2023-12-20T13:58:25;7.13;;;6.25;;
35745;SDS011;21870;42.812;74.628;2023-12-20T14:00:51;7.78;;;6.97;;
35745;SDS011;21870;42.812;74.628;2023-12-20T14:03:17;8.27;;;7.38;;
35745;SDS011;21870;42.812;74.628;2023-12-20T14:05:45;8.52;;;7.70;;
35745;SDS011;21870;42.812;74.628;2023-12-20T14:08:11;8.38;;;7.47;;
35745;SDS011;21870;42.812;74.628;2023-12-20T14:10:37;9.07;;;8.18;;
35745;SDS011;21870;42.812;74.628;2023-12-20T14:13:04;9.60;;;7.90;;